sensor_id;sensor_type;location;lat;lon;timestamp;temperature;humidity
72604;DHT22;60645;56.968;24.196;2023-10-13T03:35:59;6.70;99.00
72604;DHT22;60645;56.968;24.196;2023-10-13T03:38:32;6.70;99.10
72604;DHT22;60645;56.968;24.196;2023-10-13T03:41:03;6.60;99.10
72604;DHT22;60645;56.968;24.196;2023-10-13T03:48:15;6.60;99.30
72604;DHT22;60645;56.968;24.196;2023-10-13T03:50:59;6.50;99.50
72604;DHT22;60645;56.968;24.196;2023-10-13T03:53:35;6.50;99.30
72604;DHT22;60645;56.968;24.196;2023-10-13T03:56:03;6.50;99.70
72604;DHT22;60645;56.968;24.196;2023-10-13T03:58:39;6.50;99.80
72604;DHT22;60645;56.968;24.196;2023-10-13T04:01:09;6.40;99.70
72604;DHT22;60645;56.968;24.196;2023-10-13T04:03:41;6.50;99.70
72604;DHT22;60645;56.968;24.196;2023-10-13T04:06:31;6.50;99.70
72604;DHT22;60645;56.968;24.196;2023-10-13T04:09:17;6.50;99.70
72604;DHT22;60645;56.968;24.196;2023-10-13T04:12:02;6.40;99.80
72604;DHT22;60645;56.968;24.196;2023-10-13T04:14:35;6.40;99.80
72604;DHT22;60645;56.968;24.196;2023-10-13T04:17:21;6.30;99.80
72604;DHT22;60645;56.968;24.196;2023-10-13T04:19:53;6.20;99.80
72604;DHT22;60645;56.968;24.196;2023-10-13T04:22:33;6.40;99.50
72604;DHT22;60645;56.968;24.196;2023-10-13T04:25:14;6.40;99.50
72604;DHT22;60645;56.968;24.196;2023-10-13T04:28:03;6.40;99.70
72604;DHT22;60645;56.968;24.196;2023-10-13T04:32:02;6.50;99.70
72604;DHT22;60645;56.968;24.196;2023-10-13T04:34:40;6.60;99.60
72604;DHT22;60645;56.968;24.196;2023-10-13T04:37:12;6.30;99.70
72604;DHT22;60645;56.968;24.196;2023-10-13T04:40:00;6.30;99.50
72604;DHT22;60645;56.968;24.196;2023-10-13T04:42:36;6.40;99.40
72604;DHT22;60645;56.968;24.196;2023-10-13T04:45:16;6.30;99.60
72604;DHT22;60645;56.968;24.196;2023-10-13T04:47:59;6.30;99.90
72604;DHT22;60645;56.968;24.196;2023-10-13T04:50:58;6.30;99.50
72604;DHT22;60645;56.968;24.196;2023-10-13T04:53:45;6.40;99.60
72604;DHT22;60645;56.968;24.196;2023-10-13T04:56:31;6.40;99.30
72604;DHT22;60645;56.968;24.196;2023-10-13T04:59:07;6.50;99.40
72604;DHT22;60645;56.968;24.196;2023-10-13T05:01:53;6.50;99.30
72604;DHT22;60645;56.968;24.196;2023-10-13T05:04:40;6.50;99.30
72604;DHT22;60645;56.968;24.196;2023-10-13T05:07:26;6.70;98.80
72604;DHT22;60645;56.968;24.196;2023-10-13T05:10:11;6.70;98.70
72604;DHT22;60645;56.968;24.196;2023-10-13T05:12:57;6.60;98.60
72604;DHT22;60645;56.968;24.196;2023-10-13T05:15:50;6.80;98.20
72604;DHT22;60645;56.968;24.196;2023-10-13T05:18:37;7.30;97.20
72604;DHT22;60645;56.968;24.196;2023-10-13T05:21:22;7.90;95.80
72604;DHT22;60645;56.968;24.196;2023-10-13T05:24:08;8.30;93.90
72604;DHT22;60645;56.968;24.196;2023-10-13T05:26:53;8.90;91.60
72604;DHT22;60645;56.968;24.196;2023-10-13T05:29:43;9.40;89.70
72604;DHT22;60645;56.968;24.196;2023-10-13T05:32:28;9.60;87.50
72604;DHT22;60645;56.968;24.196;2023-10-13T05:35:15;9.70;87.90
72604;DHT22;60645;56.968;24.196;2023-10-13T05:38:01;9.70;87.70
72604;DHT22;60645;56.968;24.196;2023-10-13T05:41:00;9.60;88.00
72604;DHT22;60645;56.968;24.196;2023-10-13T05:43:49;9.40;88.50
72604;DHT22;60645;56.968;24.196;2023-10-13T05:46:34;9.20;89.10
72604;DHT22;60645;56.968;24.196;2023-10-13T05:49:16;9.30;89.50
72604;DHT22;60645;56.968;24.196;2023-10-13T05:51:43;9.30;89.40
72604;DHT22;60645;56.968;24.196;2023-10-13T05:54:34;9.50;89.10
72604;DHT22;60645;56.968;24.196;2023-10-13T05:57:20;10.40;85.60
72604;DHT22;60645;56.968;24.196;2023-10-13T06:00:07;10.70;84.80
72604;DHT22;60645;56.968;24.196;2023-10-13T06:02:53;10.70;84.70
72604;DHT22;60645;56.968;24.196;2023-10-13T06:05:38;10.50;85.10
72604;DHT22;60645;56.968;24.196;2023-10-13T06:08:24;10.30;86.20
72604;DHT22;60645;56.968;24.196;2023-10-13T06:11:09;10.50;85.80
72604;DHT22;60645;56.968;24.196;2023-10-13T06:13:55;11.20;83.70
72604;DHT22;60645;56.968;24.196;2023-10-13T06:16:41;12.00;81.80
72604;DHT22;60645;56.968;24.196;2023-10-13T06:19:43;12.50;80.40
72604;DHT22;60645;56.968;24.196;2023-10-13T06:22:29;12.90;79.50
72604;DHT22;60645;56.968;24.196;2023-10-13T06:25:14;13.60;77.40
72604;DHT22;60645;56.968;24.196;2023-10-13T06:28:02;13.90;75.90
72604;DHT22;60645;56.968;24.196;2023-10-13T06:30:58;14.20;75.00
72604;DHT22;60645;56.968;24.196;2023-10-13T06:33:25;13.50;76.90
72604;DHT22;60645;56.968;24.196;2023-10-13T06:35:56;12.80;78.70
72604;DHT22;60645;56.968;24.196;2023-10-13T06:38:23;12.20;81.60
72604;DHT22;60645;56.968;24.196;2023-10-13T06:40:50;11.50;82.90
72604;DHT22;60645;56.968;24.196;2023-10-13T06:43:19;11.30;83.80
72604;DHT22;60645;56.968;24.196;2023-10-13T06:45:53;11.30;83.60
72604;DHT22;60645;56.968;24.196;2023-10-13T06:48:27;11.20;83.90
72604;DHT22;60645;56.968;24.196;2023-10-13T06:51:01;11.20;84.20
72604;DHT22;60645;56.968;24.196;2023-10-13T06:53:49;11.00;85.40
72604;DHT22;60645;56.968;24.196;2023-10-13T06:56:18;11.00;85.20
72604;DHT22;60645;56.968;24.196;2023-10-13T06:58:55;10.70;85.80
72604;DHT22;60645;56.968;24.196;2023-10-13T07:01:31;10.70;86.40
72604;DHT22;60645;56.968;24.196;2023-10-13T07:04:09;10.70;86.70
72604;DHT22;60645;56.968;24.196;2023-10-13T07:06:44;10.80;86.20
72604;DHT22;60645;56.968;24.196;2023-10-13T07:09:17;10.90;86.00
72604;DHT22;60645;56.968;24.196;2023-10-13T07:12:04;10.90;86.10
72604;DHT22;60645;56.968;24.196;2023-10-13T07:14:47;10.90;88.50
72604;DHT22;60645;56.968;24.196;2023-10-13T07:17:21;11.00;86.10
72604;DHT22;60645;56.968;24.196;2023-10-13T07:19:55;11.20;86.20
72604;DHT22;60645;56.968;24.196;2023-10-13T07:22:42;11.20;85.90
72604;DHT22;60645;56.968;24.196;2023-10-13T07:25:22;11.40;85.80
72604;DHT22;60645;56.968;24.196;2023-10-13T07:27:53;11.80;85.20
72604;DHT22;60645;56.968;24.196;2023-10-13T07:30:21;12.00;83.80
72604;DHT22;60645;56.968;24.196;2023-10-13T07:32:54;12.30;83.60
72604;DHT22;60645;56.968;24.196;2023-10-13T07:35:21;12.20;84.00
72604;DHT22;60645;56.968;24.196;2023-10-13T07:37:53;12.40;83.10
72604;DHT22;60645;56.968;24.196;2023-10-13T07:40:27;12.10;83.30
72604;DHT22;60645;56.968;24.196;2023-10-13T07:42:55;12.20;83.50
72604;DHT22;60645;56.968;24.196;2023-10-13T07:45:30;12.30;83.70
72604;DHT22;60645;56.968;24.196;2023-10-13T07:48:09;12.30;83.70
72604;DHT22;60645;56.968;24.196;2023-10-13T07:50:43;12.40;84.50
72604;DHT22;60645;56.968;24.196;2023-10-13T07:53:12;12.50;83.60
72604;DHT22;60645;56.968;24.196;2023-10-13T07:55:51;12.50;83.40
72604;DHT22;60645;56.968;24.196;2023-10-13T07:58:29;12.50;83.60
72604;DHT22;60645;56.968;24.196;2023-10-13T08:01:00;12.60;82.90
72604;DHT22;60645;56.968;24.196;2023-10-13T08:03:36;12.70;82.60
72604;DHT22;60645;56.968;24.196;2023-10-13T08:06:14;12.80;82.70
72604;DHT22;60645;56.968;24.196;2023-10-13T08:08:46;13.30;81.80
72604;DHT22;60645;56.968;24.196;2023-10-13T08:11:17;14.90;77.80
72604;DHT22;60645;56.968;24.196;2023-10-13T08:13:54;16.60;71.30
72604;DHT22;60645;56.968;24.196;2023-10-13T08:16:36;18.90;64.90
72604;DHT22;60645;56.968;24.196;2023-10-13T08:19:16;21.30;57.40
72604;DHT22;60645;56.968;24.196;2023-10-13T08:21:44;21.30;57.40
72604;DHT22;60645;56.968;24.196;2023-10-13T08:24:32;22.00;54.30
72604;DHT22;60645;56.968;24.196;2023-10-13T08:27:05;22.30;53.40
72604;DHT22;60645;56.968;24.196;2023-10-13T08:29:42;22.70;53.20
72604;DHT22;60645;56.968;24.196;2023-10-13T08:32:36;22.80;51.80
72604;DHT22;60645;56.968;24.196;2023-10-13T08:35:10;22.00;53.50
72604;DHT22;60645;56.968;24.196;2023-10-13T08:37:49;22.20;52.40
72604;DHT22;60645;56.968;24.196;2023-10-13T08:40:22;22.70;51.70
72604;DHT22;60645;56.968;24.196;2023-10-13T08:43:18;22.90;50.80
72604;DHT22;60645;56.968;24.196;2023-10-13T08:45:46;23.20;50.60
72604;DHT22;60645;56.968;24.196;2023-10-13T08:48:15;23.40;50.40
72604;DHT22;60645;56.968;24.196;2023-10-13T08:50:52;23.90;49.40
72604;DHT22;60645;56.968;24.196;2023-10-13T08:53:29;23.90;49.30
72604;DHT22;60645;56.968;24.196;2023-10-13T08:56:14;24.00;48.70
72604;DHT22;60645;56.968;24.196;2023-10-13T08:58:45;24.10;48.30
72604;DHT22;60645;56.968;24.196;2023-10-13T09:01:29;24.60;47.50
72604;DHT22;60645;56.968;24.196;2023-10-13T09:04:05;24.60;47.30
72604;DHT22;60645;56.968;24.196;2023-10-13T09:06:45;24.90;46.40
72604;DHT22;60645;56.968;24.196;2023-10-13T09:14:54;25.40;44.90
72604;DHT22;60645;56.968;24.196;2023-10-13T09:17:26;24.60;45.60
72604;DHT22;60645;56.968;24.196;2023-10-13T09:20:07;23.90;46.80
72604;DHT22;60645;56.968;24.196;2023-10-13T09:22:50;24.60;45.50
72604;DHT22;60645;56.968;24.196;2023-10-13T09:28:13;22.80;48.80
72604;DHT22;60645;56.968;24.196;2023-10-13T09:30:50;21.80;50.10
72604;DHT22;60645;56.968;24.196;2023-10-13T09:33:24;21.00;51.50
72604;DHT22;60645;56.968;24.196;2023-10-13T09:36:07;20.60;52.70
72604;DHT22;60645;56.968;24.196;2023-10-13T09:38:36;20.20;54.30
72604;DHT22;60645;56.968;24.196;2023-10-13T09:41:07;19.60;54.90
72604;DHT22;60645;56.968;24.196;2023-10-13T09:43:46;18.90;56.70
72604;DHT22;60645;56.968;24.196;2023-10-13T09:46:22;18.00;60.10
72604;DHT22;60645;56.968;24.196;2023-10-13T09:48:58;17.20;61.90
72604;DHT22;60645;56.968;24.196;2023-10-13T09:51:35;17.00;62.70
72604;DHT22;60645;56.968;24.196;2023-10-13T09:54:14;17.00;63.40
72604;DHT22;60645;56.968;24.196;2023-10-13T09:57:09;16.90;62.60
72604;DHT22;60645;56.968;24.196;2023-10-13T09:59:46;16.60;63.40
72604;DHT22;60645;56.968;24.196;2023-10-13T10:02:19;16.60;64.30
72604;DHT22;60645;56.968;24.196;2023-10-13T10:04:57;16.70;64.70
72604;DHT22;60645;56.968;24.196;2023-10-13T10:07:42;16.70;64.40
72604;DHT22;60645;56.968;24.196;2023-10-13T10:10:11;16.70;64.00
72604;DHT22;60645;56.968;24.196;2023-10-13T10:12:42;16.80;64.80
72604;DHT22;60645;56.968;24.196;2023-10-13T10:15:32;16.80;64.70
72604;DHT22;60645;56.968;24.196;2023-10-13T10:18:04;16.70;64.20
72604;DHT22;60645;56.968;24.196;2023-10-13T10:20:33;16.50;65.80
72604;DHT22;60645;56.968;24.196;2023-10-13T10:23:09;16.30;66.00
72604;DHT22;60645;56.968;24.196;2023-10-13T10:25:44;16.20;65.50
72604;DHT22;60645;56.968;24.196;2023-10-13T10:28:13;16.10;66.60
72604;DHT22;60645;56.968;24.196;2023-10-13T10:30:43;16.20;67.80
72604;DHT22;60645;56.968;24.196;2023-10-13T10:33:11;16.10;67.30
72604;DHT22;60645;56.968;24.196;2023-10-13T10:35:47;16.40;65.70
72604;DHT22;60645;56.968;24.196;2023-10-13T10:38:18;16.20;64.50
72604;DHT22;60645;56.968;24.196;2023-10-13T10:41:00;15.80;64.70
72604;DHT22;60645;56.968;24.196;2023-10-13T10:43:49;15.40;65.90
72604;DHT22;60645;56.968;24.196;2023-10-13T10:46:27;15.50;65.00
72604;DHT22;60645;56.968;24.196;2023-10-13T10:48:58;15.60;64.10
72604;DHT22;60645;56.968;24.196;2023-10-13T10:51:28;15.60;64.90
72604;DHT22;60645;56.968;24.196;2023-10-13T10:54:00;15.50;65.20
72604;DHT22;60645;56.968;24.196;2023-10-13T10:56:38;15.60;64.10
72604;DHT22;60645;56.968;24.196;2023-10-13T10:59:06;15.80;63.30
72604;DHT22;60645;56.968;24.196;2023-10-13T11:01:43;16.00;64.90
72604;DHT22;60645;56.968;24.196;2023-10-13T11:04:20;15.80;64.90
72604;DHT22;60645;56.968;24.196;2023-10-13T11:06:53;15.80;64.90
72604;DHT22;60645;56.968;24.196;2023-10-13T11:09:32;15.70;65.40
72604;DHT22;60645;56.968;24.196;2023-10-13T11:14:42;15.20;66.70
72604;DHT22;60645;56.968;24.196;2023-10-13T11:17:09;15.30;66.60
72604;DHT22;60645;56.968;24.196;2023-10-13T11:19:48;15.30;65.60
72604;DHT22;60645;56.968;24.196;2023-10-13T11:22:20;15.20;66.30
72604;DHT22;60645;56.968;24.196;2023-10-13T11:24:58;15.30;67.00
72604;DHT22;60645;56.968;24.196;2023-10-13T11:27:40;15.30;67.00
72604;DHT22;60645;56.968;24.196;2023-10-13T11:30:17;15.30;66.30
72604;DHT22;60645;56.968;24.196;2023-10-13T11:33:04;15.30;65.50
72604;DHT22;60645;56.968;24.196;2023-10-13T11:35:36;15.30;65.10
72604;DHT22;60645;56.968;24.196;2023-10-13T11:38:30;15.30;65.00
72604;DHT22;60645;56.968;24.196;2023-10-13T11:41:16;15.10;66.40
72604;DHT22;60645;56.968;24.196;2023-10-13T11:46:24;14.90;66.90
72604;DHT22;60645;56.968;24.196;2023-10-13T11:49:06;15.00;66.70
72604;DHT22;60645;56.968;24.196;2023-10-13T11:51:49;15.10;66.00
72604;DHT22;60645;56.968;24.196;2023-10-13T11:54:17;15.30;64.90
72604;DHT22;60645;56.968;24.196;2023-10-13T11:56:46;15.40;65.10
72604;DHT22;60645;56.968;24.196;2023-10-13T11:59:14;15.40;64.10
72604;DHT22;60645;56.968;24.196;2023-10-13T12:01:51;15.40;63.40
72604;DHT22;60645;56.968;24.196;2023-10-13T12:04:38;15.50;63.10
72604;DHT22;60645;56.968;24.196;2023-10-13T12:07:19;15.80;61.60
72604;DHT22;60645;56.968;24.196;2023-10-13T12:10:05;16.30;59.90
72604;DHT22;60645;56.968;24.196;2023-10-13T12:12:41;18.00;57.60
72604;DHT22;60645;56.968;24.196;2023-10-13T12:15:10;19.80;53.30
72604;DHT22;60645;56.968;24.196;2023-10-13T12:17:42;21.10;49.30
72604;DHT22;60645;56.968;24.196;2023-10-13T12:20:12;21.90;48.30
72604;DHT22;60645;56.968;24.196;2023-10-13T12:22:45;22.80;45.80
72604;DHT22;60645;56.968;24.196;2023-10-13T12:25:22;22.90;44.90
72604;DHT22;60645;56.968;24.196;2023-10-13T12:27:53;22.50;45.10
72604;DHT22;60645;56.968;24.196;2023-10-13T12:30:24;21.90;46.90
72604;DHT22;60645;56.968;24.196;2023-10-13T12:33:25;21.60;47.50
72604;DHT22;60645;56.968;24.196;2023-10-13T12:35:58;21.30;47.90
72604;DHT22;60645;56.968;24.196;2023-10-13T12:38:45;21.80;47.80
72604;DHT22;60645;56.968;24.196;2023-10-13T12:41:17;21.80;48.20
72604;DHT22;60645;56.968;24.196;2023-10-13T12:44:04;21.60;47.80
72604;DHT22;60645;56.968;24.196;2023-10-13T12:46:51;21.40;48.30
72604;DHT22;60645;56.968;24.196;2023-10-13T12:49:37;20.20;51.10
72604;DHT22;60645;56.968;24.196;2023-10-13T12:52:12;19.00;54.50
72604;DHT22;60645;56.968;24.196;2023-10-13T12:54:59;18.90;54.70
72604;DHT22;60645;56.968;24.196;2023-10-13T12:57:33;19.80;52.90
72604;DHT22;60645;56.968;24.196;2023-10-13T13:00:01;20.20;52.60
72604;DHT22;60645;56.968;24.196;2023-10-13T13:02:43;20.30;50.60
72604;DHT22;60645;56.968;24.196;2023-10-13T13:05:10;19.80;52.00
72604;DHT22;60645;56.968;24.196;2023-10-13T13:07:41;18.80;53.80
72604;DHT22;60645;56.968;24.196;2023-10-13T13:10:14;17.30;56.50
72604;DHT22;60645;56.968;24.196;2023-10-13T13:12:42;16.20;60.40
72604;DHT22;60645;56.968;24.196;2023-10-13T13:15:09;15.50;63.50
72604;DHT22;60645;56.968;24.196;2023-10-13T13:17:39;15.20;64.90
72604;DHT22;60645;56.968;24.196;2023-10-13T13:20:07;15.10;64.80
72604;DHT22;60645;56.968;24.196;2023-10-13T13:22:54;15.10;65.90
72604;DHT22;60645;56.968;24.196;2023-10-13T13:25:22;15.00;66.50
72604;DHT22;60645;56.968;24.196;2023-10-13T13:27:58;14.70;66.90
72604;DHT22;60645;56.968;24.196;2023-10-13T13:30:31;14.60;66.40
72604;DHT22;60645;56.968;24.196;2023-10-13T13:33:02;14.40;67.20
72604;DHT22;60645;56.968;24.196;2023-10-13T13:35:40;14.30;67.20
72604;DHT22;60645;56.968;24.196;2023-10-13T13:38:10;14.40;67.00
72604;DHT22;60645;56.968;24.196;2023-10-13T13:40:43;14.30;67.20
72604;DHT22;60645;56.968;24.196;2023-10-13T13:43:16;14.20;67.10
72604;DHT22;60645;56.968;24.196;2023-10-13T13:45:59;14.20;67.50
72604;DHT22;60645;56.968;24.196;2023-10-13T13:48:28;14.20;68.10
72604;DHT22;60645;56.968;24.196;2023-10-13T13:50:55;14.20;67.60
72604;DHT22;60645;56.968;24.196;2023-10-13T13:53:31;14.10;68.80
72604;DHT22;60645;56.968;24.196;2023-10-13T13:56:09;14.20;69.10
72604;DHT22;60645;56.968;24.196;2023-10-13T13:58:36;14.00;69.50
72604;DHT22;60645;56.968;24.196;2023-10-13T14:03:05;13.90;69.70
72604;DHT22;60645;56.968;24.196;2023-10-13T14:05:33;13.90;68.90
72604;DHT22;60645;56.968;24.196;2023-10-13T14:08:00;13.80;69.40
72604;DHT22;60645;56.968;24.196;2023-10-13T14:10:27;13.80;69.80
72604;DHT22;60645;56.968;24.196;2023-10-13T14:13:13;13.70;70.50
72604;DHT22;60645;56.968;24.196;2023-10-13T14:15:40;13.40;70.40
72604;DHT22;60645;56.968;24.196;2023-10-13T14:18:11;13.30;70.90
72604;DHT22;60645;56.968;24.196;2023-10-13T14:20:44;13.30;71.40
72604;DHT22;60645;56.968;24.196;2023-10-13T14:23:11;13.20;71.90
72604;DHT22;60645;56.968;24.196;2023-10-13T14:25:39;13.20;72.90
72604;DHT22;60645;56.968;24.196;2023-10-13T14:28:11;13.20;73.00
72604;DHT22;60645;56.968;24.196;2023-10-13T14:30:42;13.20;73.10
72604;DHT22;60645;56.968;24.196;2023-10-13T14:33:09;13.10;73.90
72604;DHT22;60645;56.968;24.196;2023-10-13T14:35:37;13.10;73.90
72604;DHT22;60645;56.968;24.196;2023-10-13T14:38:04;13.10;74.80
72604;DHT22;60645;56.968;24.196;2023-10-13T14:40:31;13.00;74.40
72604;DHT22;60645;56.968;24.196;2023-10-13T14:42:58;12.80;75.30
72604;DHT22;60645;56.968;24.196;2023-10-13T14:45:25;12.80;75.80
72604;DHT22;60645;56.968;24.196;2023-10-13T14:47:52;12.70;76.40
72604;DHT22;60645;56.968;24.196;2023-10-13T14:50:19;12.60;76.80
72604;DHT22;60645;56.968;24.196;2023-10-13T14:52:48;12.60;77.20
72604;DHT22;60645;56.968;24.196;2023-10-13T14:55:15;12.60;77.30
72604;DHT22;60645;56.968;24.196;2023-10-13T14:57:49;12.60;77.70
72604;DHT22;60645;56.968;24.196;2023-10-13T15:00:18;12.50;77.80
72604;DHT22;60645;56.968;24.196;2023-10-13T15:02:52;12.40;78.00
72604;DHT22;60645;56.968;24.196;2023-10-13T15:05:20;12.30;78.50
72604;DHT22;60645;56.968;24.196;2023-10-13T15:07:47;12.20;79.00
72604;DHT22;60645;56.968;24.196;2023-10-13T15:10:15;12.00;79.30
72604;DHT22;60645;56.968;24.196;2023-10-13T15:12:43;12.10;79.80
72604;DHT22;60645;56.968;24.196;2023-10-13T15:15:13;12.00;79.90
72604;DHT22;60645;56.968;24.196;2023-10-13T15:17:40;11.90;80.20
72604;DHT22;60645;56.968;24.196;2023-10-13T15:20:08;12.00;80.80
72604;DHT22;60645;56.968;24.196;2023-10-13T15:22:36;11.70;80.90
72604;DHT22;60645;56.968;24.196;2023-10-13T15:25:06;11.70;81.20
72604;DHT22;60645;56.968;24.196;2023-10-13T15:27:44;11.50;81.30
72604;DHT22;60645;56.968;24.196;2023-10-13T15:30:17;11.50;81.70
72604;DHT22;60645;56.968;24.196;2023-10-13T15:32:57;11.30;82.10
72604;DHT22;60645;56.968;24.196;2023-10-13T15:35:24;11.40;82.10
72604;DHT22;60645;56.968;24.196;2023-10-13T15:37:55;11.30;82.80
72604;DHT22;60645;56.968;24.196;2023-10-13T15:40:23;11.30;82.50
72604;DHT22;60645;56.968;24.196;2023-10-13T15:42:50;11.30;82.70
72604;DHT22;60645;56.968;24.196;2023-10-13T15:45:17;11.20;83.00
72604;DHT22;60645;56.968;24.196;2023-10-13T15:47:47;11.20;83.20
72604;DHT22;60645;56.968;24.196;2023-10-13T15:50:18;11.20;83.30
72604;DHT22;60645;56.968;24.196;2023-10-13T15:52:48;11.10;83.40
72604;DHT22;60645;56.968;24.196;2023-10-13T15:55:16;11.00;83.60
72604;DHT22;60645;56.968;24.196;2023-10-13T15:57:46;11.00;83.80
72604;DHT22;60645;56.968;24.196;2023-10-13T16:00:20;11.00;84.00
72604;DHT22;60645;56.968;24.196;2023-10-13T16:02:50;11.00;84.00
72604;DHT22;60645;56.968;24.196;2023-10-13T16:05:18;10.90;84.30
72604;DHT22;60645;56.968;24.196;2023-10-13T16:07:46;11.00;84.40
72604;DHT22;60645;56.968;24.196;2023-10-13T16:10:13;11.00;84.40
72604;DHT22;60645;56.968;24.196;2023-10-13T16:12:40;11.00;84.70
72604;DHT22;60645;56.968;24.196;2023-10-13T16:15:07;11.00;84.80
72604;DHT22;60645;56.968;24.196;2023-10-13T16:17:40;10.90;84.70
72604;DHT22;60645;56.968;24.196;2023-10-13T16:20:07;10.90;84.90
72604;DHT22;60645;56.968;24.196;2023-10-13T16:22:44;11.00;84.90
72604;DHT22;60645;56.968;24.196;2023-10-13T16:25:12;11.00;85.10
72604;DHT22;60645;56.968;24.196;2023-10-13T16:27:45;10.90;85.20
72604;DHT22;60645;56.968;24.196;2023-10-13T16:30:13;10.90;85.30
72604;DHT22;60645;56.968;24.196;2023-10-13T16:32:46;10.90;85.20
72604;DHT22;60645;56.968;24.196;2023-10-13T16:35:14;10.80;85.10
72604;DHT22;60645;56.968;24.196;2023-10-13T16:37:43;10.90;85.00
72604;DHT22;60645;56.968;24.196;2023-10-13T16:40:14;10.80;85.00
72604;DHT22;60645;56.968;24.196;2023-10-13T16:42:41;10.80;85.00
72604;DHT22;60645;56.968;24.196;2023-10-13T16:45:08;10.80;84.80
72604;DHT22;60645;56.968;24.196;2023-10-13T16:47:42;10.70;85.00
72604;DHT22;60645;56.968;24.196;2023-10-13T16:50:10;10.80;85.20
72604;DHT22;60645;56.968;24.196;2023-10-13T16:52:37;10.80;85.00
72604;DHT22;60645;56.968;24.196;2023-10-13T16:55:04;10.80;85.00
72604;DHT22;60645;56.968;24.196;2023-10-13T16:57:31;10.80;84.80
72604;DHT22;60645;56.968;24.196;2023-10-13T16:59:58;10.80;84.70
72604;DHT22;60645;56.968;24.196;2023-10-13T17:02:25;10.80;84.60
72604;DHT22;60645;56.968;24.196;2023-10-13T17:04:52;10.90;84.30
72604;DHT22;60645;56.968;24.196;2023-10-13T17:07:24;10.90;84.10
72604;DHT22;60645;56.968;24.196;2023-10-13T17:09:51;11.00;83.90
72604;DHT22;60645;56.968;24.196;2023-10-13T17:12:23;11.00;83.40
72604;DHT22;60645;56.968;24.196;2023-10-13T17:14:53;11.10;83.40
72604;DHT22;60645;56.968;24.196;2023-10-13T17:17:20;11.00;83.20
72604;DHT22;60645;56.968;24.196;2023-10-13T17:19:47;11.00;83.20
72604;DHT22;60645;56.968;24.196;2023-10-13T17:22:16;11.10;83.20
72604;DHT22;60645;56.968;24.196;2023-10-13T17:24:43;11.10;83.00
72604;DHT22;60645;56.968;24.196;2023-10-13T17:27:10;11.10;83.40
72604;DHT22;60645;56.968;24.196;2023-10-13T17:29:37;11.20;83.70
72604;DHT22;60645;56.968;24.196;2023-10-13T17:32:04;11.10;83.70
72604;DHT22;60645;56.968;24.196;2023-10-13T17:34:34;11.10;83.60
72604;DHT22;60645;56.968;24.196;2023-10-13T17:37:01;11.10;83.60
72604;DHT22;60645;56.968;24.196;2023-10-13T17:39:28;11.10;83.50
72604;DHT22;60645;56.968;24.196;2023-10-13T17:41:55;11.10;83.60
72604;DHT22;60645;56.968;24.196;2023-10-13T17:44:22;11.10;83.40
72604;DHT22;60645;56.968;24.196;2023-10-13T17:46:50;11.10;83.50
72604;DHT22;60645;56.968;24.196;2023-10-13T17:49:19;11.10;83.60
72604;DHT22;60645;56.968;24.196;2023-10-13T17:51:46;11.00;83.50
72604;DHT22;60645;56.968;24.196;2023-10-13T17:54:12;11.10;83.40
72604;DHT22;60645;56.968;24.196;2023-10-13T17:56:39;11.10;83.20
72604;DHT22;60645;56.968;24.196;2023-10-13T17:59:07;11.00;83.40
72604;DHT22;60645;56.968;24.196;2023-10-13T18:01:34;11.20;83.10
72604;DHT22;60645;56.968;24.196;2023-10-13T18:04:03;11.20;83.80
72604;DHT22;60645;56.968;24.196;2023-10-13T18:06:31;11.20;83.70
72604;DHT22;60645;56.968;24.196;2023-10-13T18:08:58;11.10;84.30
72604;DHT22;60645;56.968;24.196;2023-10-13T18:11:28;10.90;85.60
72604;DHT22;60645;56.968;24.196;2023-10-13T18:13:56;10.80;85.60
72604;DHT22;60645;56.968;24.196;2023-10-13T18:16:23;10.70;86.30
72604;DHT22;60645;56.968;24.196;2023-10-13T18:18:53;10.70;86.50
72604;DHT22;60645;56.968;24.196;2023-10-13T18:21:23;10.60;86.80
72604;DHT22;60645;56.968;24.196;2023-10-13T18:23:50;10.60;86.90
72604;DHT22;60645;56.968;24.196;2023-10-13T18:26:17;10.60;87.60
72604;DHT22;60645;56.968;24.196;2023-10-13T18:28:47;10.60;88.80
72604;DHT22;60645;56.968;24.196;2023-10-13T18:31:17;10.50;89.30
72604;DHT22;60645;56.968;24.196;2023-10-13T18:33:46;10.30;90.40
72604;DHT22;60645;56.968;24.196;2023-10-13T18:36:14;10.30;90.40
72604;DHT22;60645;56.968;24.196;2023-10-13T18:38:42;10.20;90.70
72604;DHT22;60645;56.968;24.196;2023-10-13T18:41:09;10.10;91.40
72604;DHT22;60645;56.968;24.196;2023-10-13T18:43:40;10.10;91.80
72604;DHT22;60645;56.968;24.196;2023-10-13T18:46:07;10.00;92.30
72604;DHT22;60645;56.968;24.196;2023-10-13T18:53:37;9.90;93.40
72604;DHT22;60645;56.968;24.196;2023-10-13T18:56:09;9.90;94.40
72604;DHT22;60645;56.968;24.196;2023-10-13T18:58:37;9.80;94.70
72604;DHT22;60645;56.968;24.196;2023-10-13T19:01:14;9.80;94.70
72604;DHT22;60645;56.968;24.196;2023-10-13T19:03:44;9.80;95.10
72604;DHT22;60645;56.968;24.196;2023-10-13T19:06:16;9.70;95.60
72604;DHT22;60645;56.968;24.196;2023-10-13T19:08:44;9.70;95.80
72604;DHT22;60645;56.968;24.196;2023-10-13T19:11:11;9.70;96.40
72604;DHT22;60645;56.968;24.196;2023-10-13T19:13:41;9.70;96.80
72604;DHT22;60645;56.968;24.196;2023-10-13T19:16:10;9.60;96.80
72604;DHT22;60645;56.968;24.196;2023-10-13T19:18:41;9.80;97.30
72604;DHT22;60645;56.968;24.196;2023-10-13T19:21:15;9.60;97.60
72604;DHT22;60645;56.968;24.196;2023-10-13T19:23:48;9.60;98.00
72604;DHT22;60645;56.968;24.196;2023-10-13T19:26:26;9.50;98.00
72604;DHT22;60645;56.968;24.196;2023-10-13T19:28:55;9.50;98.00
72604;DHT22;60645;56.968;24.196;2023-10-13T19:31:31;9.60;98.70
72604;DHT22;60645;56.968;24.196;2023-10-13T19:33:58;9.50;99.10
72604;DHT22;60645;56.968;24.196;2023-10-13T19:36:33;9.40;99.50
72604;DHT22;60645;56.968;24.196;2023-10-13T19:39:02;9.40;99.70
72604;DHT22;60645;56.968;24.196;2023-10-13T19:41:35;9.40;99.80
72604;DHT22;60645;56.968;24.196;2023-10-13T19:44:05;9.40;99.90
72604;DHT22;60645;56.968;24.196;2023-10-13T19:46:33;9.40;99.90
72604;DHT22;60645;56.968;24.196;2023-10-13T19:49:02;9.50;99.90
72604;DHT22;60645;56.968;24.196;2023-10-13T19:51:31;9.40;99.90
72604;DHT22;60645;56.968;24.196;2023-10-13T19:53:59;9.50;99.90
72604;DHT22;60645;56.968;24.196;2023-10-13T19:56:29;9.50;99.90
72604;DHT22;60645;56.968;24.196;2023-10-13T19:58:59;9.50;99.90
72604;DHT22;60645;56.968;24.196;2023-10-13T20:01:28;9.50;99.90
72604;DHT22;60645;56.968;24.196;2023-10-13T20:04:01;9.40;99.90
72604;DHT22;60645;56.968;24.196;2023-10-13T20:06:34;9.50;99.90